Time;durP1;ratioP1;P1;durP2;ratioP2;P2;SDS_P1;SDS_P2;PMS_P1;PMS_P2;Temp;Humidity;BMP_temperature;BMP_pressure;BME280_temperature;BME280_humidity;BME280_pressure;Samples;Min_cycle;Max_cycle;Signal;HPM_P1;HPM_P2
2023/07/04 00:01:00;;;;;;;14.60;4.20;;;18.70;87.70;;;;;;5033008;28;20079;-71
2023/07/04 00:03:28;;;;;;;18.40;4.38;;;18.80;87.60;;;;;;5033257;28;20044;-71
2023/07/04 00:05:55;;;;;;;9.07;3.63;;;18.80;87.20;;;;;;5032045;28;20036;-71
2023/07/04 00:08:22;;;;;;;14.43;3.38;;;18.80;87.20;;;;;;5032650;28;20112;-71
2023/07/04 00:10:48;;;;;;;15.13;3.20;;;18.80;86.70;;;;;;5032339;28;20025;-71
2023/07/04 00:13:15;;;;;;;8.98;3.45;;;18.80;86.70;;;;;;5032698;28;20030;-71
2023/07/04 00:15:49;;;;;;;17.10;3.38;;;18.80;86.50;;;;;;5032822;28;20032;-72
2023/07/04 00:18:17;;;;;;;11.70;3.15;;;18.70;86.50;;;;;;5031477;28;20049;-71
2023/07/04 00:20:42;;;;;;;14.43;3.40;;;18.70;86.70;;;;;;5031539;28;20467;-72
2023/07/04 00:23:08;;;;;;;12.38;3.65;;;18.80;86.70;;;;;;5032221;28;20029;-70
2023/07/04 00:25:34;;;;;;;12.38;4.38;;;18.80;86.90;;;;;;5032355;28;20036;-72
2023/07/04 00:28:05;;;;;;;15.18;4.45;;;18.80;87.20;;;;;;5032474;28;20021;-71
2023/07/04 00:30:31;;;;;;;12.60;3.70;;;18.80;87.20;;;;;;5032283;28;20111;-71
2023/07/04 00:32:57;;;;;;;11.55;3.85;;;18.80;87.30;;;;;;5032575;28;20107;-71
2023/07/04 00:35:23;;;;;;;14.57;3.63;;;18.80;87.40;;;;;;5032292;28;20471;-70
2023/07/04 00:37:49;;;;;;;10.55;3.38;;;18.70;89.00;;;;;;5033063;28;20025;-70
2023/07/04 00:40:15;;;;;;;9.43;2.60;;;18.70;90.00;;;;;;5032161;28;20359;-71
2023/07/04 00:42:41;;;;;;;14.35;2.65;;;18.60;90.80;;;;;;5030860;28;20095;-70
2023/07/04 00:45:20;;;;;;;14.48;3.40;;;18.50;91.20;;;;;;5031031;28;20188;-71
2023/07/04 00:47:59;;;;;;;16.33;2.65;;;18.40;91.70;;;;;;5032126;28;20533;-70
2023/07/04 00:50:31;;;;;;;10.43;2.60;;;18.40;92.10;;;;;;5032655;28;20014;-69
2023/07/04 00:53:02;;;;;;;14.98;2.63;;;18.20;93.10;;;;;;5031296;28;20021;-71
2023/07/04 00:55:30;;;;;;;7.13;2.63;;;18.20;93.00;;;;;;5030677;28;20135;-71
2023/07/04 00:57:56;;;;;;;13.15;3.05;;;18.10;93.30;;;;;;5032241;28;20030;-71
2023/07/04 01:00:23;;;;;;;7.88;2.30;;;18.00;93.60;;;;;;5032069;28;20036;-71
2023/07/04 01:02:59;;;;;;;15.00;2.67;;;18.10;93.80;;;;;;5031814;28;20037;-71
2023/07/04 01:06:00;;;;;;;16.40;3.00;;;18.00;94.00;;;;;;5030891;28;20071;-71
2023/07/04 01:08:32;;;;;;;9.88;3.20;;;18.00;94.10;;;;;;5032210;28;20132;-70
2023/07/04 01:11:01;;;;;;;8.30;1.70;;;17.90;94.10;;;;;;5031455;28;20030;-70
2023/07/04 01:13:27;;;;;;;11.13;2.30;;;17.90;94.20;;;;;;5031497;28;20386;-70
2023/07/04 01:15:53;;;;;;;5.88;1.63;;;17.80;94.20;;;;;;5031743;28;20061;-71
2023/07/04 01:18:19;;;;;;;6.47;1.70;;;17.80;94.10;;;;;;5031630;28;20049;-71
2023/07/04 01:20:47;;;;;;;5.63;1.75;;;17.80;93.90;;;;;;5031455;28;20041;-71
2023/07/04 01:23:17;;;;;;;5.45;1.60;;;17.70;94.00;;;;;;5030564;28;20429;-71
2023/07/04 01:26:10;;;;;;;5.80;1.35;;;17.70;93.90;;;;;;5032192;28;20059;-70
2023/07/04 01:28:37;;;;;;;7.80;1.65;;;17.60;93.60;;;;;;5030345;28;20121;-69
2023/07/04 01:31:05;;;;;;;1.90;0.93;;;17.40;93.70;;;;;;5030283;28;20081;-69
2023/07/04 01:33:31;;;;;;;7.78;1.48;;;17.30;93.80;;;;;;5031385;28;20026;-70
2023/07/04 01:35:57;;;;;;;4.15;1.45;;;17.20;94.00;;;;;;5040038;28;20091;-70
2023/07/04 01:38:22;;;;;;;5.13;1.08;;;17.20;94.00;;;;;;5050027;28;20030;-70
2023/07/04 01:40:48;;;;;;;4.57;1.40;;;17.20;94.00;;;;;;5051629;28;20039;-70
2023/07/04 01:43:14;;;;;;;3.72;1.30;;;17.20;94.20;;;;;;5051273;28;20426;-70
2023/07/04 01:45:39;;;;;;;3.53;0.93;;;17.20;94.40;;;;;;5050010;28;20029;-68
2023/07/04 01:48:06;;;;;;;4.85;0.98;;;17.00;94.60;;;;;;5050892;28;20052;-70
2023/07/04 01:50:32;;;;;;;3.03;1.05;;;16.80;95.30;;;;;;5050978;28;20048;-70
2023/07/04 01:52:58;;;;;;;3.38;0.93;;;16.70;96.80;;;;;;5051328;28;20025;-69
2023/07/04 01:55:23;;;;;;;2.75;1.20;;;16.60;97.70;;;;;;5051030;28;20025;-68
2023/07/04 01:57:49;;;;;;;4.22;1.10;;;16.60;98.10;;;;;;5051355;28;20033;-69
2023/07/04 02:00:15;;;;;;;3.85;1.15;;;16.30;98.80;;;;;;5050723;28;20057;-69
2023/07/04 02:02:42;;;;;;;4.95;1.13;;;16.30;98.80;;;;;;5050570;28;20429;-69
2023/07/04 02:05:08;;;;;;;4.97;0.95;;;16.40;98.70;;;;;;5050580;28;20065;-69
2023/07/04 02:07:34;;;;;;;2.65;0.98;;;16.40;99.10;;;;;;5050924;28;20071;-70
2023/07/04 02:09:59;;;;;;;2.95;0.90;;;16.50;98.60;;;;;;5049375;28;20051;-69
2023/07/04 02:12:25;;;;;;;3.67;1.00;;;16.50;99.00;;;;;;5050613;28;20044;-69
2023/07/04 02:14:51;;;;;;;2.70;1.10;;;16.50;98.60;;;;;;5050466;28;20036;-70
2023/07/04 02:17:16;;;;;;;1.85;0.90;;;16.50;98.60;;;;;;5050611;28;20100;-70
2023/07/04 02:19:42;;;;;;;1.35;0.73;;;16.40;98.80;;;;;;5050861;28;20073;-69
2023/07/04 02:22:08;;;;;;;2.40;1.13;;;16.50;98.80;;;;;;5049235;28;20033;-69
2023/07/04 02:24:34;;;;;;;4.93;1.00;;;16.50;98.80;;;;;;5050144;28;20488;-69
2023/07/04 02:27:00;;;;;;;5.25;1.38;;;16.50;98.80;;;;;;5050542;28;20053;-70
2023/07/04 02:29:25;;;;;;;7.63;1.13;;;16.50;98.70;;;;;;5050118;28;20051;-69
2023/07/04 02:31:51;;;;;;;4.07;0.88;;;16.40;98.70;;;;;;5050886;28;20475;-70
2023/07/04 02:34:17;;;;;;;2.13;0.90;;;16.50;98.50;;;;;;5050135;28;20033;-69
2023/07/04 02:36:43;;;;;;;4.40;1.15;;;16.50;98.40;;;;;;5050059;28;20374;-68
2023/07/04 02:39:09;;;;;;;2.90;1.10;;;16.40;98.40;;;;;;5049169;28;20091;-70
2023/07/04 02:41:34;;;;;;;3.30;0.70;;;16.50;98.20;;;;;;5049808;28;20037;-70
2023/07/04 02:44:00;;;;;;;1.30;0.70;;;16.50;98.40;;;;;;5050478;28;20029;-69
2023/07/04 02:46:26;;;;;;;3.95;0.80;;;16.50;98.50;;;;;;5053863;28;20090;-69
2023/07/04 02:48:52;;;;;;;5.38;0.70;;;16.50;98.50;;;;;;5056822;28;20030;-70
2023/07/04 02:51:18;;;;;;;3.92;1.30;;;16.40;98.40;;;;;;5056840;28;20036;-69
2023/07/04 02:53:43;;;;;;;3.05;0.80;;;16.40;98.40;;;;;;5056515;28;20032;-72
2023/07/04 02:56:11;;;;;;;3.22;0.80;;;16.40;98.80;;;;;;5055814;28;20040;-71
2023/07/04 02:58:36;;;;;;;4.63;0.80;;;16.40;98.50;;;;;;5057157;28;20044;-71
2023/07/04 03:01:04;;;;;;;3.40;0.88;;;16.40;98.60;;;;;;5055144;28;20040;-70
2023/07/04 03:03:30;;;;;;;3.72;1.30;;;16.40;98.40;;;;;;5055196;28;20052;-69
2023/07/04 03:05:56;;;;;;;4.03;1.00;;;16.40;98.80;;;;;;5056611;28;20029;-70
2023/07/04 03:08:22;;;;;;;2.70;0.95;;;16.30;98.40;;;;;;5056341;28;20043;-69
2023/07/04 03:10:47;;;;;;;1.83;1.10;;;16.40;98.70;;;;;;5057092;28;20035;-70
2023/07/04 03:13:14;;;;;;;3.70;0.90;;;16.30;98.60;;;;;;5055105;28;20056;-69
2023/07/04 03:15:40;;;;;;;2.25;0.82;;;16.40;98.40;;;;;;5056198;28;20040;-69
2023/07/04 03:18:06;;;;;;;2.03;0.98;;;16.30;98.60;;;;;;5056755;28;20033;-70
2023/07/04 03:20:31;;;;;;;2.40;0.98;;;16.40;98.50;;;;;;5056277;28;20362;-70
2023/07/04 03:22:57;;;;;;;2.95;0.88;;;16.20;98.70;;;;;;5055722;28;20501;-69
2023/07/04 03:25:23;;;;;;;2.60;1.00;;;16.20;98.90;;;;;;5056512;28;20036;-70
2023/07/04 03:27:48;;;;;;;2.28;0.80;;;16.30;98.50;;;;;;5056434;28;20039;-70
2023/07/04 03:30:15;;;;;;;5.18;1.60;;;16.30;98.50;;;;;;5056002;28;20063;-69
2023/07/04 03:32:41;;;;;;;3.60;0.95;;;16.40;98.60;;;;;;5055317;28;20047;-69
2023/07/04 03:35:08;;;;;;;2.03;0.90;;;16.40;98.80;;;;;;5056975;28;20470;-69
2023/07/04 03:37:35;;;;;;;1.70;1.10;;;16.30;99.00;;;;;;5055289;28;20037;-70
2023/07/04 03:40:06;;;;;;;3.67;1.02;;;16.40;99.30;;;;;;5055131;28;20055;-68
2023/07/04 03:42:33;;;;;;;3.05;1.20;;;16.30;99.30;;;;;;5056333;28;20629;-69
2023/07/04 03:44:59;;;;;;;6.28;1.10;;;16.20;99.60;;;;;;5056764;28;20515;-69
2023/07/04 03:47:24;;;;;;;5.18;1.15;;;16.10;99.90;;;;;;5056143;28;20021;-69
2023/07/04 03:49:50;;;;;;;5.15;1.17;;;16.20;99.90;;;;;;5055924;28;20039;-70
2023/07/04 03:52:16;;;;;;;4.18;1.05;;;16.20;99.70;;;;;;5056390;28;20037;-69
2023/07/04 03:54:42;;;;;;;4.13;1.13;;;16.30;99.80;;;;;;5055117;28;20025;-69
2023/07/04 03:57:08;;;;;;;3.38;1.17;;;16.20;99.90;;;;;;5054270;28;20033;-69
2023/07/04 03:59:34;;;;;;;5.43;1.25;;;16.20;99.90;;;;;;5052610;28;20052;-68
2023/07/04 04:02:00;;;;;;;5.78;1.35;;;16.10;99.90;;;;;;5052249;28;20024;-71
2023/07/04 04:04:25;;;;;;;2.88;1.13;;;16.10;99.90;;;;;;5053134;28;20037;-69
2023/07/04 04:06:55;;;;;;;6.25;1.50;;;16.20;99.90;;;;;;5051525;28;20072;-68
2023/07/04 04:09:21;;;;;;;2.70;1.20;;;16.20;99.90;;;;;;5051872;28;20462;-69
2023/07/04 04:11:47;;;;;;;4.97;1.40;;;16.20;99.90;;;;;;5053010;28;20033;-70
2023/07/04 04:14:13;;;;;;;6.85;1.40;;;16.20;99.90;;;;;;5052394;28;20039;-70
2023/07/04 04:16:38;;;;;;;9.57;1.45;;;16.20;99.90;;;;;;5052236;28;20024;-70
2023/07/04 04:19:04;;;;;;;9.95;1.65;;;16.20;99.90;;;;;;5051733;28;20274;-69
2023/07/04 04:21:30;;;;;;;5.70;1.30;;;16.20;99.90;;;;;;5052788;28;20126;-68
2023/07/04 04:23:56;;;;;;;9.05;1.50;;;16.00;99.90;;;;;;5051660;28;20072;-68
2023/07/04 04:26:24;;;;;;;3.55;1.02;;;16.10;99.90;;;;;;5052595;28;20469;-68
2023/07/04 04:28:50;;;;;;;4.65;1.20;;;16.20;99.90;;;;;;5053163;28;20021;-69
2023/07/04 04:31:16;;;;;;;2.45;0.90;;;16.30;99.70;;;;;;5051159;28;20136;-69
2023/07/04 04:33:42;;;;;;;3.17;1.20;;;16.30;99.80;;;;;;5052479;28;20036;-70
2023/07/04 04:36:08;;;;;;;6.22;1.23;;;16.30;99.70;;;;;;5051348;28;20049;-69
2023/07/04 04:38:36;;;;;;;3.13;0.90;;;16.30;99.60;;;;;;5050779;28;20045;-69
2023/07/04 04:41:03;;;;;;;3.53;1.10;;;16.40;99.30;;;;;;5051618;28;20025;-69
2023/07/04 04:43:32;;;;;;;4.20;1.20;;;16.30;99.20;;;;;;5052095;28;20509;-70
2023/07/04 04:46:02;;;;;;;5.43;1.42;;;16.30;99.10;;;;;;5051992;28;20033;-69
2023/07/04 04:48:35;;;;;;;9.00;1.23;;;16.30;99.10;;;;;;5050800;28;20050;-70
2023/07/04 04:51:10;;;;;;;2.15;1.00;;;16.30;99.10;;;;;;5051276;28;20756;-70
2023/07/04 04:53:36;;;;;;;5.07;1.35;;;16.40;99.10;;;;;;5051319;28;20366;-70
2023/07/04 04:56:03;;;;;;;4.78;1.33;;;16.40;99.30;;;;;;5052636;28;20521;-70
2023/07/04 04:58:29;;;;;;;4.63;0.93;;;16.30;99.40;;;;;;5050724;28;20079;-70
2023/07/04 05:00:55;;;;;;;5.45;1.50;;;16.30;99.20;;;;;;5050314;28;20489;-71
2023/07/04 05:03:21;;;;;;;5.18;1.20;;;16.30;99.10;;;;;;5050037;28;20127;-71
2023/07/04 05:05:46;;;;;;;4.15;1.50;;;16.40;99.00;;;;;;5050779;28;20104;-70
2023/07/04 05:08:12;;;;;;;5.28;1.70;;;16.30;98.90;;;;;;5051408;28;20112;-70
2023/07/04 05:10:38;;;;;;;7.07;1.08;;;16.40;99.10;;;;;;5051806;28;20456;-70
2023/07/04 05:13:04;;;;;;;4.20;1.13;;;16.30;98.80;;;;;;5051478;28;20029;-70
2023/07/04 05:15:29;;;;;;;6.40;1.48;;;16.30;98.80;;;;;;5051417;28;20045;-70
2023/07/04 05:17:56;;;;;;;6.15;1.25;;;16.30;98.60;;;;;;5050244;28;20032;-68
2023/07/04 05:20:24;;;;;;;4.40;1.10;;;16.30;98.40;;;;;;5051300;28;20042;-69
2023/07/04 05:22:53;;;;;;;8.43;2.33;;;16.20;98.60;;;;;;5051520;28;20271;-70
2023/07/04 05:25:19;;;;;;;6.78;1.17;;;16.20;98.40;;;;;;5050369;28;20371;-69
2023/07/04 05:27:45;;;;;;;3.40;1.00;;;16.30;98.50;;;;;;5051123;28;20033;-68
2023/07/04 05:30:11;;;;;;;4.80;1.05;;;16.20;98.20;;;;;;5049823;28;20463;-70
2023/07/04 05:32:37;;;;;;;9.82;1.52;;;16.40;98.20;;;;;;5051216;28;20504;-70
2023/07/04 05:35:03;;;;;;;7.38;1.30;;;16.40;98.20;;;;;;5051378;28;20342;-69
2023/07/04 05:37:30;;;;;;;9.68;1.60;;;16.40;98.30;;;;;;5051170;28;20124;-68
2023/07/04 05:39:57;;;;;;;3.15;1.15;;;16.50;98.20;;;;;;5050965;28;20033;-68
2023/07/04 05:42:24;;;;;;;9.52;1.67;;;16.50;98.20;;;;;;5050745;28;20033;-69
2023/07/04 05:44:50;;;;;;;4.18;1.17;;;16.60;98.30;;;;;;5051049;28;20106;-72
2023/07/04 05:47:15;;;;;;;8.65;1.58;;;16.60;98.40;;;;;;5050688;28;20369;-70
2023/07/04 05:49:41;;;;;;;5.55;1.33;;;16.70;98.50;;;;;;5049670;28;20021;-70
2023/07/04 05:52:07;;;;;;;7.85;1.30;;;16.70;98.30;;;;;;5049420;28;20029;-69
2023/07/04 05:54:33;;;;;;;11.45;4.00;;;16.70;98.30;;;;;;5049202;28;20032;-69
2023/07/04 05:56:58;;;;;;;13.90;3.17;;;16.70;98.40;;;;;;5050414;28;20045;-68
2023/07/04 05:59:24;;;;;;;7.10;1.40;;;16.70;98.30;;;;;;5050106;28;20036;-69
2023/07/04 06:01:51;;;;;;;6.25;1.70;;;16.80;98.20;;;;;;5050555;28;20028;-69
2023/07/04 06:04:17;;;;;;;3.65;0.93;;;16.70;98.30;;;;;;5050466;28;20025;-69
2023/07/04 06:06:49;;;;;;;7.45;1.63;;;16.80;98.20;;;;;;5050495;28;20506;-70
2023/07/04 06:09:16;;;;;;;3.08;1.10;;;16.80;98.50;;;;;;5050472;28;20436;-69
2023/07/04 06:11:45;;;;;;;6.72;1.30;;;16.90;98.30;;;;;;5050127;28;20562;-72
2023/07/04 06:14:15;;;;;;;4.45;1.48;;;17.00;98.20;;;;;;5050065;28;20057;-71
2023/07/04 06:16:41;;;;;;;8.82;1.40;;;17.00;98.00;;;;;;5050507;28;20017;-69
2023/07/04 06:19:07;;;;;;;6.45;1.67;;;17.00;98.00;;;;;;5050438;28;20097;-70
2023/07/04 06:21:32;;;;;;;5.93;1.25;;;17.00;97.70;;;;;;5048455;28;20052;-70
2023/07/04 06:23:58;;;;;;;5.40;1.83;;;17.10;97.80;;;;;;5049798;28;20025;-68
2023/07/04 06:26:27;;;;;;;6.22;1.30;;;17.00;97.50;;;;;;5049901;28;20056;-71
2023/07/04 06:28:54;;;;;;;3.00;1.20;;;17.00;97.60;;;;;;5032522;28;20014;-69
2023/07/04 06:31:20;;;;;;;5.63;1.33;;;17.00;97.40;;;;;;5010191;28;20046;-69
2023/07/04 06:33:46;;;;;;;5.57;1.60;;;16.90;97.40;;;;;;5010347;28;20317;-70
2023/07/04 06:36:14;;;;;;;6.75;1.70;;;16.90;97.40;;;;;;5025736;28;20022;-67
2023/07/04 06:38:40;;;;;;;5.90;1.67;;;17.00;97.40;;;;;;5010283;28;20030;-69
2023/07/04 06:41:11;;;;;;;8.65;1.58;;;17.10;97.20;;;;;;5010806;28;20463;-69
2023/07/04 06:43:38;;;;;;;3.83;1.50;;;17.10;97.00;;;;;;5010409;28;20415;-69
2023/07/04 06:46:04;;;;;;;15.25;7.88;;;17.20;97.00;;;;;;5025759;28;20052;-67
2023/07/04 06:48:30;;;;;;;19.05;5.65;;;17.40;97.00;;;;;;5029779;28;20088;-70
2023/07/04 06:51:01;;;;;;;9.82;2.08;;;17.50;96.70;;;;;;5029758;28;20040;-70
2023/07/04 06:53:28;;;;;;;4.32;1.38;;;17.50;96.70;;;;;;5029783;28;20030;-68
2023/07/04 06:56:13;;;;;;;6.70;1.52;;;17.60;96.60;;;;;;5030677;28;20347;-70
2023/07/04 06:58:46;;;;;;;5.78;1.45;;;17.60;96.50;;;;;;5029854;28;20049;-69
2023/07/04 07:01:12;;;;;;;6.88;2.05;;;17.70;96.60;;;;;;5029729;28;20033;-69
2023/07/04 07:03:38;;;;;;;7.55;1.67;;;17.80;96.30;;;;;;5029847;28;20048;-70
2023/07/04 07:06:08;;;;;;;6.43;1.75;;;17.90;96.10;;;;;;5029802;28;20482;-69
2023/07/04 07:08:34;;;;;;;7.80;2.10;;;17.90;95.90;;;;;;5029891;28;20041;-69
2023/07/04 07:11:09;;;;;;;9.85;2.50;;;17.90;95.80;;;;;;5030147;28;20117;-69
2023/07/04 07:13:36;;;;;;;6.00;1.90;;;18.00;95.80;;;;;;5029552;28;20045;-71
2023/07/04 07:16:08;;;;;;;8.68;2.10;;;18.20;95.80;;;;;;5029707;28;20030;-69
2023/07/04 07:18:34;;;;;;;10.25;2.40;;;18.40;95.50;;;;;;5029766;28;20052;-69
2023/07/04 07:21:01;;;;;;;8.70;2.10;;;18.50;95.40;;;;;;5029609;28;20026;-68
2023/07/04 07:23:27;;;;;;;7.33;2.20;;;18.60;95.40;;;;;;5029742;28;20438;-68
2023/07/04 07:25:57;;;;;;;8.15;2.55;;;18.70;95.10;;;;;;5029224;28;20029;-69
2023/07/04 07:28:24;;;;;;;3.58;2.10;;;18.70;95.20;;;;;;5028540;28;20041;-68
2023/07/04 07:31:10;;;;;;;4.97;2.47;;;18.90;95.20;;;;;;5029471;28;20054;-70
2023/07/04 07:33:37;;;;;;;9.45;2.88;;;18.90;95.10;;;;;;5031907;28;20030;-68
2023/07/04 07:36:23;;;;;;;10.48;2.60;;;18.90;94.90;;;;;;5033330;28;20650;-70
2023/07/04 07:38:50;;;;;;;6.88;2.58;;;18.90;94.70;;;;;;5033332;28;20029;-70
2023/07/04 07:41:17;;;;;;;7.68;2.60;;;18.90;94.70;;;;;;5033365;28;20356;-68
2023/07/04 07:43:43;;;;;;;5.60;2.22;;;19.00;94.70;;;;;;5032422;28;20530;-70
2023/07/04 07:46:14;;;;;;;6.35;1.98;;;19.10;94.40;;;;;;5033585;28;20033;-68
2023/07/04 07:48:40;;;;;;;9.40;2.28;;;18.90;94.00;;;;;;5033281;28;20373;-70
2023/07/04 07:51:09;;;;;;;6.85;1.83;;;18.90;93.90;;;;;;5033325;28;20021;-74
2023/07/04 07:53:36;;;;;;;6.82;1.88;;;18.90;94.20;;;;;;5033010;28;20061;-72
2023/07/04 07:56:06;;;;;;;10.93;2.63;;;19.10;94.10;;;;;;5048870;28;20498;-67
2023/07/04 07:58:32;;;;;;;3.80;1.50;;;19.30;94.10;;;;;;5048549;28;20348;-70
2023/07/04 08:00:58;;;;;;;5.60;2.03;;;19.50;93.70;;;;;;5033018;28;20491;-67
2023/07/04 08:03:24;;;;;;;7.20;2.47;;;19.50;93.30;;;;;;5032968;28;20112;-68
2023/07/04 08:05:50;;;;;;;5.05;1.67;;;19.60;93.10;;;;;;5032932;28;20585;-69
2023/07/04 08:08:15;;;;;;;9.95;2.10;;;19.70;93.10;;;;;;5032768;28;20104;-66
2023/07/04 08:10:42;;;;;;;7.38;2.58;;;19.80;92.80;;;;;;5033583;28;20067;-67
2023/07/04 08:13:09;;;;;;;10.80;2.20;;;20.00;92.70;;;;;;5032782;28;20178;-69
2023/07/04 08:15:35;;;;;;;11.50;2.47;;;20.00;92.60;;;;;;5048156;28;20040;-68
2023/07/04 08:18:05;;;;;;;8.68;2.47;;;20.20;92.70;;;;;;5048116;28;20026;-69
2023/07/04 08:20:31;;;;;;;5.00;1.70;;;20.30;92.60;;;;;;5032661;28;20037;-72
2023/07/04 08:22:57;;;;;;;4.93;1.65;;;20.40;92.40;;;;;;5032981;28;20079;-70
2023/07/04 08:25:22;;;;;;;6.55;1.52;;;20.60;92.20;;;;;;5032690;28;20022;-69
2023/07/04 08:27:48;;;;;;;4.50;1.42;;;20.50;91.00;;;;;;5032714;28;20052;-70
2023/07/04 08:30:14;;;;;;;7.20;2.30;;;20.40;90.80;;;;;;5047767;28;20049;-69
2023/07/04 08:32:39;;;;;;;7.20;1.70;;;20.30;91.00;;;;;;5032409;28;20029;-70
2023/07/04 08:35:07;;;;;;;6.55;1.45;;;20.40;90.40;;;;;;5032254;28;20049;-70
2023/07/04 08:37:32;;;;;;;5.07;1.83;;;20.80;90.50;;;;;;5032371;28;20467;-70
2023/07/04 08:39:58;;;;;;;4.57;1.27;;;21.20;90.00;;;;;;5047627;28;20091;-71
2023/07/04 08:42:26;;;;;;;4.95;1.70;;;21.10;89.10;;;;;;5032065;28;20068;-70
2023/07/04 08:44:52;;;;;;;5.38;1.65;;;21.60;88.80;;;;;;5031467;28;20041;-70
2023/07/04 08:47:25;;;;;;;8.48;4.45;;;21.90;88.30;;;;;;5032203;28;20479;-71
2023/07/04 08:49:56;;;;;;;8.35;2.92;;;22.60;86.70;;;;;;5032124;28;20112;-70
2023/07/04 08:52:36;;;;;;;4.53;1.35;;;23.30;85.20;;;;;;5031976;28;20045;-70
2023/07/04 08:55:02;;;;;;;5.78;2.28;;;24.00;83.00;;;;;;5030618;28;20029;-70
2023/07/04 08:57:59;;;;;;;15.05;8.38;;;24.60;80.30;;;;;;5031831;28;20033;-71
2023/07/04 09:00:38;;;;;;;13.70;6.72;;;24.90;79.60;;;;;;5031560;28;20049;-69
2023/07/04 09:03:36;;;;;;;11.90;3.20;;;25.10;77.30;;;;;;5031513;28;20514;-70
2023/07/04 09:06:27;;;;;;;5.80;1.73;;;24.20;76.70;;;;;;5047968;28;20029;-72
2023/07/04 09:09:24;;;;;;;7.60;1.60;;;23.90;77.40;;;;;;5031619;28;20044;-70
2023/07/04 09:11:50;;;;;;;4.63;2.20;;;23.50;78.60;;;;;;5031641;28;20414;-72
2023/07/04 09:14:26;;;;;;;6.93;1.85;;;23.10;78.20;;;;;;5031560;28;20022;-72
2023/07/04 09:16:53;;;;;;;8.38;1.67;;;22.80;79.50;;;;;;5031964;28;20506;-73
2023/07/04 09:19:20;;;;;;;9.40;1.90;;;22.60;80.20;;;;;;5031772;28;20029;-72
2023/07/04 09:21:46;;;;;;;6.50;1.75;;;22.20;79.20;;;;;;5031379;28;20033;-72
2023/07/04 09:24:12;;;;;;;5.10;1.40;;;21.90;78.80;;;;;;5031079;28;20087;-71
2023/07/04 09:26:46;;;;;;;3.03;1.40;;;21.60;79.20;;;;;;5031303;28;20033;-69
2023/07/04 09:29:15;;;;;;;6.13;1.60;;;21.50;80.20;;;;;;5030058;28;20021;-68
2023/07/04 09:31:44;;;;;;;4.05;1.33;;;21.50;80.90;;;;;;5031846;28;20128;-70
2023/07/04 09:34:40;;;;;;;5.55;1.33;;;21.70;81.70;;;;;;5030056;28;20056;-69
2023/07/04 09:37:13;;;;;;;9.38;1.75;;;21.80;80.70;;;;;;5030628;28;20426;-69
2023/07/04 09:39:49;;;;;;;8.95;1.92;;;22.00;79.80;;;;;;5030768;28;20037;-67
2023/07/04 09:42:20;;;;;;;10.73;1.70;;;22.20;78.80;;;;;;5046100;28;20084;-70
2023/07/04 09:44:47;;;;;;;7.93;1.63;;;22.20;78.90;;;;;;5030792;28;20056;-70
2023/07/04 09:47:25;;;;;;;4.65;1.40;;;22.40;77.30;;;;;;5030705;28;20108;-68
2023/07/04 09:50:23;;;;;;;8.88;1.83;;;22.20;77.10;;;;;;5031092;28;20369;-69
2023/07/04 09:53:08;;;;;;;7.88;1.73;;;22.10;78.00;;;;;;5030941;28;20115;-69
2023/07/04 09:55:35;;;;;;;7.78;1.83;;;22.00;79.00;;;;;;5029586;28;20282;-71
2023/07/04 09:58:25;;;;;;;6.72;1.20;;;22.20;78.90;;;;;;5030445;28;20033;-70
2023/07/04 10:01:10;;;;;;;7.03;1.63;;;22.60;79.10;;;;;;5030311;28;20029;-70
2023/07/04 10:03:41;;;;;;;9.85;1.30;;;22.50;79.30;;;;;;5029149;28;20403;-70
2023/07/04 10:06:09;;;;;;;6.43;1.77;;;22.50;78.30;;;;;;5029053;28;20475;-69
2023/07/04 10:08:55;;;;;;;6.60;1.98;;;22.70;78.50;;;;;;5045525;28;20044;-69
2023/07/04 10:11:39;;;;;;;7.13;1.75;;;22.50;77.60;;;;;;5030113;28;20064;-69
2023/07/04 10:14:08;;;;;;;9.13;1.40;;;22.50;77.70;;;;;;5030799;28;20363;-69
2023/07/04 10:16:35;;;;;;;7.07;2.42;;;22.50;77.50;;;;;;5030122;28;20041;-69
2023/07/04 10:19:12;;;;;;;8.07;1.45;;;22.00;77.20;;;;;;5029154;28;20120;-69
2023/07/04 10:21:50;;;;;;;8.18;1.80;;;21.80;78.40;;;;;;5030150;28;20040;-68
2023/07/04 10:24:22;;;;;;;5.40;2.10;;;22.00;78.40;;;;;;5029817;28;20416;-68
2023/07/04 10:26:51;;;;;;;4.80;1.77;;;22.20;78.60;;;;;;5029936;28;20030;-68
2023/07/04 10:29:31;;;;;;;7.03;2.17;;;22.40;77.80;;;;;;5029840;28;20109;-68
2023/07/04 10:32:02;;;;;;;10.38;1.52;;;22.30;77.30;;;;;;5030426;28;20056;-68
2023/07/04 10:34:30;;;;;;;5.32;1.90;;;22.30;76.50;;;;;;5030453;28;20037;-69
2023/07/04 10:36:56;;;;;;;8.10;2.15;;;22.60;77.20;;;;;;5029932;28;20025;-67
2023/07/04 10:39:24;;;;;;;9.77;1.55;;;22.10;76.80;;;;;;5030167;28;20120;-69
2023/07/04 10:41:58;;;;;;;12.40;1.95;;;22.00;77.20;;;;;;5029935;28;20047;-68
2023/07/04 10:44:26;;;;;;;6.35;2.05;;;21.80;77.70;;;;;;5029992;28;20045;-70
2023/07/04 10:47:06;;;;;;;7.65;2.20;;;21.70;78.30;;;;;;5030670;28;20106;-68
2023/07/04 10:50:01;;;;;;;6.38;2.28;;;21.50;79.30;;;;;;5029965;28;20057;-68
2023/07/04 10:52:31;;;;;;;9.32;2.50;;;21.50;80.10;;;;;;5021925;28;20029;-70
2023/07/04 10:54:59;;;;;;;9.38;2.20;;;21.50;80.00;;;;;;5029878;28;20040;-68
2023/07/04 10:57:39;;;;;;;12.32;2.42;;;21.40;79.30;;;;;;5029832;28;20368;-69
2023/07/04 11:00:33;;;;;;;6.63;2.05;;;21.30;79.40;;;;;;5029436;28;20030;-68
2023/07/04 11:03:07;;;;;;;18.40;2.38;;;21.00;79.50;;;;;;5029078;28;20187;-69
2023/07/04 11:05:41;;;;;;;7.45;2.17;;;21.00;79.20;;;;;;5029902;28;20120;-68
2023/07/04 11:08:13;;;;;;;4.63;2.03;;;20.90;79.00;;;;;;5033295;28;20316;-72
2023/07/04 11:10:43;;;;;;;10.90;2.45;;;20.90;79.00;;;;;;5033623;28;20037;-70
2023/07/04 11:13:18;;;;;;;7.75;2.00;;;21.00;79.30;;;;;;5033331;28;20056;-68
2023/07/04 11:15:50;;;;;;;8.95;2.38;;;20.90;79.40;;;;;;5033495;28;20029;-70
2023/07/04 11:18:18;;;;;;;12.70;3.22;;;20.80;79.90;;;;;;5033634;28;20088;-71
2023/07/04 11:21:08;;;;;;;12.33;2.30;;;20.80;80.50;;;;;;5033530;28;20517;-70
2023/07/04 11:23:49;;;;;;;11.20;2.63;;;20.80;80.60;;;;;;5048688;28;20491;-69
2023/07/04 11:26:16;;;;;;;8.35;2.88;;;20.70;80.60;;;;;;5033317;28;20029;-68
2023/07/04 11:28:45;;;;;;;9.98;2.38;;;20.70;81.40;;;;;;5033891;28;20416;-69
2023/07/04 11:31:11;;;;;;;7.88;2.30;;;20.80;81.20;;;;;;5033138;28;20080;-69
2023/07/04 11:33:52;;;;;;;8.98;2.35;;;20.70;81.20;;;;;;5048777;28;20038;-69
2023/07/04 11:36:42;;;;;;;9.00;2.40;;;20.80;80.60;;;;;;5033041;28;20029;-70
2023/07/04 11:39:34;;;;;;;9.10;2.80;;;20.80;80.70;;;;;;5033255;28;20041;-70
2023/07/04 11:42:15;;;;;;;8.35;2.78;;;20.80;81.10;;;;;;5048699;28;20038;-68
2023/07/04 11:45:01;;;;;;;12.63;3.08;;;20.80;81.10;;;;;;5033167;28;20181;-69
2023/07/04 11:47:49;;;;;;;9.52;2.50;;;20.80;81.50;;;;;;5033090;28;20026;-69
2023/07/04 11:50:19;;;;;;;9.93;3.08;;;20.70;81.70;;;;;;5031691;28;20021;-67
2023/07/04 11:52:52;;;;;;;9.30;2.15;;;20.60;81.90;;;;;;5032568;28;20021;-70
2023/07/04 11:55:33;;;;;;;6.72;2.53;;;20.60;82.30;;;;;;5033534;28;20033;-70
2023/07/04 11:58:07;;;;;;;10.30;3.05;;;20.60;82.60;;;;;;5034244;28;20107;-71
2023/07/04 12:00:36;;;;;;;7.65;2.40;;;20.50;82.90;;;;;;5033599;28;20092;-68
2023/07/04 12:03:16;;;;;;;13.18;4.30;;;20.50;83.50;;;;;;5032883;28;20363;-70
2023/07/04 12:05:58;;;;;;;10.75;2.97;;;20.40;83.60;;;;;;5033327;28;20037;-71
2023/07/04 12:08:31;;;;;;;9.35;2.75;;;20.50;83.40;;;;;;5034004;28;20029;-70
2023/07/04 12:11:00;;;;;;;9.63;2.58;;;20.40;83.30;;;;;;5033093;28;20052;-71
2023/07/04 12:13:29;;;;;;;14.07;3.13;;;20.40;84.30;;;;;;5033367;28;20021;-72
2023/07/04 12:15:56;;;;;;;9.35;2.72;;;20.10;86.20;;;;;;5032732;28;20460;-71
2023/07/04 12:18:29;;;;;;;11.02;2.85;;;20.00;86.90;;;;;;5031584;28;20029;-71
2023/07/04 12:20:58;;;;;;;13.25;2.13;;;20.00;87.10;;;;;;5030962;28;20037;-71
2023/07/04 12:23:24;;;;;;;7.72;2.47;;;20.00;86.90;;;;;;5031991;28;20036;-70
2023/07/04 12:25:55;;;;;;;10.70;2.85;;;20.00;86.80;;;;;;5032914;28;20104;-71
2023/07/04 12:28:26;;;;;;;13.23;2.58;;;20.00;86.70;;;;;;5032288;28;20026;-70
2023/07/04 12:31:01;;;;;;;11.27;2.72;;;20.10;86.80;;;;;;5032123;28;20427;-70
2023/07/04 12:33:31;;;;;;;12.82;3.45;;;20.00;86.80;;;;;;5032102;28;20148;-71
2023/07/04 12:36:09;;;;;;;9.15;3.22;;;20.20;86.70;;;;;;5031969;28;20100;-70
2023/07/04 12:38:48;;;;;;;11.18;2.55;;;20.40;86.50;;;;;;5047528;28;20036;-69
2023/07/04 12:41:16;;;;;;;10.57;2.50;;;20.50;86.40;;;;;;5032414;28;20025;-72
2023/07/04 12:43:42;;;;;;;6.45;2.13;;;20.70;86.30;;;;;;5032529;28;20087;-68
2023/07/04 12:46:18;;;;;;;13.45;2.80;;;20.80;84.90;;;;;;5032318;28;20065;-70
2023/07/04 12:48:45;;;;;;;8.93;2.10;;;20.70;84.40;;;;;;5032446;28;20041;-71
2023/07/04 12:51:15;;;;;;;7.85;2.22;;;20.70;84.40;;;;;;5031888;28;20478;-70
2023/07/04 12:53:44;;;;;;;13.82;1.98;;;20.80;83.50;;;;;;5031848;28;20451;-69
2023/07/04 12:56:11;;;;;;;6.72;2.10;;;20.80;83.50;;;;;;5032118;28;20455;-70
2023/07/04 12:58:41;;;;;;;9.57;2.40;;;20.80;82.90;;;;;;5031760;28;20479;-71